Garnerville, New York
Current Conditions -  °F | °C
As of 8:56 AM on Wednesday 28 Jan 2015 (Local Time) from KHPN Reporting Station
Scattered Clouds Scattered Clouds  
Wind Chill:   Ceiling: Unl
Heat Index: 18°   Visibility: 10mi
Dew Point:   Wind: 14mph
Humidity: 52%   Direction: 320°NW
Pressure: 29.97"   Gusts: 22mph
Location:  41.2°N, 73.99°W
Report Text: KHPN 281356Z 32012G19KT 10SM SCT100 M08/M16 A2997 RMK AO2 SLP163 T10781161
Loading
Personal Weather Stations






























Interactive Weather Map New forecast layout! Learn more

10-Day Weather Forecast

Advertisements
Track Severe Weather on mobile